Time;durP1;ratioP1;P1;durP2;ratioP2;P2;SDS_P1;SDS_P2;PMS_P1;PMS_P2;Temp;Humidity;BMP_temperature;BMP_pressure;BME280_temperature;BME280_humidity;BME280_pressure;Samples;Min_cycle;Max_cycle;Signal;HPM_P1;HPM_P2
2022/05/08 00:01:03;;;;;;;14.65;10.13;;;11.50;99.90;;;;;;5057793;28;19916;-67
2022/05/08 00:03:29;;;;;;;;;;;11.50;99.90;;;;;;5057336;28;20033;-67
2022/05/08 00:05:55;;;;;;;16.27;10.05;;;11.50;99.90;;;;;;5061912;28;19928;-67
2022/05/08 00:08:21;;;;;;;;;;;11.50;99.90;;;;;;5057650;28;20813;-67
2022/05/08 00:10:47;;;;;;;16.73;10.18;;;11.50;99.90;;;;;;5061535;28;19928;-68
2022/05/08 00:13:14;;;;;;;;;;;11.50;99.90;;;;;;5057510;28;20032;-68
2022/05/08 00:15:40;;;;;;;15.75;9.98;;;11.50;99.90;;;;;;5061486;28;19916;-68
2022/05/08 00:18:06;;;;;;;;;;;11.60;99.90;;;;;;5048584;28;20116;-68
2022/05/08 00:20:32;;;;;;;16.67;9.38;;;11.60;99.90;;;;;;5048261;28;20049;-67
2022/05/08 00:22:58;;;;;;;19.42;12.38;;;11.70;99.90;;;;;;5043451;28;20051;-67
2022/05/08 00:25:26;;;;;;;;;;;11.70;99.90;;;;;;5050402;28;20115;-67
2022/05/08 00:27:51;;;;;;;17.27;11.27;;;11.70;99.90;;;;;;5026483;28;19928;-68
2022/05/08 00:30:17;;;;;;;;;;;11.70;99.90;;;;;;5030256;28;20117;-67
2022/05/08 00:32:42;;;;;;;18.60;12.70;;;11.70;99.90;;;;;;5046991;28;19916;-67
2022/05/08 00:35:10;;;;;;;;;;;11.70;99.90;;;;;;5045951;28;20117;-68
2022/05/08 00:37:36;;;;;;;20.30;12.85;;;11.70;99.90;;;;;;5047262;28;19921;-68
2022/05/08 00:40:02;;;;;;;21.52;13.35;;;11.80;99.90;;;;;;5043109;28;20025;-68
2022/05/08 00:42:27;;;;;;;;;;;11.80;99.90;;;;;;5044065;28;20037;-68
2022/05/08 00:44:53;;;;;;;20.75;13.55;;;11.90;99.90;;;;;;5044199;28;19924;-68
2022/05/08 00:47:18;;;;;;;;;;;11.90;99.90;;;;;;5055015;28;20129;-68
2022/05/08 00:49:44;;;;;;;26.20;15.80;;;11.90;99.90;;;;;;5063858;28;19923;-70
2022/05/08 00:52:09;;;;;;;;;;;11.80;99.90;;;;;;5058935;28;20543;-68
2022/05/08 00:54:36;;;;;;;27.50;16.40;;;11.80;99.90;;;;;;5058356;28;19924;-68
2022/05/08 00:57:01;;;;;;;28.88;17.00;;;11.70;99.90;;;;;;5050448;28;20053;-68
2022/05/08 00:59:27;;;;;;;;;;;11.70;99.90;;;;;;5043400;28;20043;-68
2022/05/08 01:01:53;;;;;;;31.38;18.25;;;11.70;99.90;;;;;;5048129;28;20003;-68
2022/05/08 01:04:18;;;;;;;;;;;11.70;99.90;;;;;;5043114;28;20037;-68
2022/05/08 01:06:45;;;;;;;26.42;16.55;;;11.80;99.90;;;;;;5047131;28;20015;-68
2022/05/08 01:09:10;;;;;;;29.23;18.05;;;11.70;99.90;;;;;;5046136;28;20037;-67
2022/05/08 01:11:36;;;;;;;;;;;11.70;99.90;;;;;;5047975;28;20097;-69
2022/05/08 01:14:02;;;;;;;36.50;19.65;;;11.80;99.90;;;;;;5064588;28;20453;-68
2022/05/08 01:16:27;;;;;;;;;;;11.80;99.90;;;;;;5059136;28;20037;-67
2022/05/08 01:18:53;;;;;;;40.78;23.27;;;11.70;99.90;;;;;;5060831;28;19970;-68
2022/05/08 01:21:23;;;;;;;;;;;11.60;99.90;;;;;;5059674;28;20070;-67
2022/05/08 01:23:48;;;;;;;39.17;23.25;;;11.70;99.90;;;;;;5029746;28;19975;-68
2022/05/08 01:26:23;;;;;;;;;;;11.60;99.90;;;;;;5047007;28;20040;-67
2022/05/08 01:28:49;;;;;;;41.38;22.05;;;11.60;99.90;;;;;;5042885;28;19975;-67
2022/05/08 01:31:15;;;;;;;;;;;11.60;99.90;;;;;;5044905;28;20033;-67
2022/05/08 01:33:41;;;;;;;34.88;21.35;;;11.50;99.90;;;;;;5043791;28;19917;-68
2022/05/08 01:36:06;;;;;;;;;;;11.60;99.90;;;;;;5043095;28;20607;-67
2022/05/08 01:38:32;;;;;;;45.92;25.90;;;11.50;99.90;;;;;;5042377;28;20004;-67
2022/05/08 01:41:03;;;;;;;;;;;11.40;99.90;;;;;;5041828;28;20036;-67
2022/05/08 01:43:32;;;;;;;45.83;24.20;;;11.50;99.90;;;;;;5042392;28;19920;-67
2022/05/08 01:45:58;;;;;;;39.47;24.92;;;11.50;99.90;;;;;;5042460;28;20037;-67
2022/05/08 01:48:23;;;;;;;;;;;11.50;99.90;;;;;;5055760;28;20039;-68
2022/05/08 01:50:53;;;;;;;37.85;22.77;;;11.50;99.90;;;;;;5063387;28;20960;-68
2022/05/08 01:53:24;;;;;;;41.35;24.60;;;11.50;99.90;;;;;;5040736;28;20037;-67
2022/05/08 01:55:53;;;;;;;44.42;25.38;;;11.50;99.90;;;;;;5027869;28;20157;-68
2022/05/08 01:58:19;;;;;;;42.97;25.30;;;11.50;99.90;;;;;;5041488;28;20048;-68
2022/05/08 02:00:58;;;;;;;42.95;25.80;;;11.50;99.90;;;;;;5033723;28;20040;-67
2022/05/08 02:03:28;;;;;;;39.95;23.67;;;11.40;99.90;;;;;;5040488;28;20424;-68
2022/05/08 02:05:53;;;;;;;48.72;26.83;;;11.50;99.90;;;;;;5034331;28;20044;-68
2022/05/08 02:08:22;;;;;;;;;;;11.50;99.90;;;;;;5040794;28;20036;-67
2022/05/08 02:10:51;;;;;;;38.80;22.60;;;11.40;99.90;;;;;;5035347;28;19923;-68
2022/05/08 02:13:24;;;;;;;34.10;21.88;;;11.40;99.90;;;;;;5051465;28;20043;-67
2022/05/08 02:15:50;;;;;;;39.78;21.60;;;11.50;99.90;;;;;;5033216;28;20045;-68
2022/05/08 02:18:20;;;;;;;38.20;23.98;;;11.50;99.90;;;;;;5037485;28;20070;-68
2022/05/08 02:20:46;;;;;;;42.50;23.73;;;11.60;99.90;;;;;;5024699;28;20037;-67
2022/05/08 02:23:16;;;;;;;44.13;23.83;;;11.50;99.90;;;;;;5038418;28;20040;-67
2022/05/08 02:25:42;;;;;;;39.85;24.60;;;11.40;99.90;;;;;;5042223;28;20049;-67
2022/05/08 02:28:11;;;;;;;;;;;11.30;99.90;;;;;;5047549;28;20116;-67
2022/05/08 02:30:40;;;;;;;40.97;21.30;;;11.30;99.90;;;;;;5040073;28;19974;-68
2022/05/08 02:33:10;;;;;;;37.10;22.00;;;11.30;99.90;;;;;;5046788;28;20025;-68
2022/05/08 02:35:40;;;;;;;35.30;20.75;;;11.30;99.90;;;;;;5040796;28;20197;-67
2022/05/08 02:38:06;;;;;;;32.83;19.75;;;11.30;99.90;;;;;;5047719;28;20556;-68
2022/05/08 02:40:31;;;;;;;41.08;21.17;;;11.30;99.90;;;;;;5042710;28;20036;-68
2022/05/08 02:43:00;;;;;;;;;;;11.40;99.90;;;;;;5047057;28;20028;-68
2022/05/08 02:45:26;;;;;;;29.58;18.35;;;11.30;99.90;;;;;;5042568;28;20007;-67
2022/05/08 02:47:52;;;;;;;;;;;11.40;99.90;;;;;;5043770;28;20124;-68
2022/05/08 02:50:24;;;;;;;32.05;18.20;;;11.40;99.90;;;;;;5061793;28;20408;-67
2022/05/08 02:52:50;;;;;;;34.90;21.15;;;11.40;99.90;;;;;;5058001;28;20066;-68
2022/05/08 03:00:53;;;;;;;30.35;18.55;;;11.40;99.90;;;;;;5027363;28;20078;-68
2022/05/08 03:03:24;;;;;;;31.15;17.70;;;11.30;99.90;;;;;;5058793;28;20037;-67
2022/05/08 03:05:53;;;;;;;29.25;18.05;;;11.40;99.90;;;;;;5044660;28;20053;-67
2022/05/08 03:08:21;;;;;;;36.00;21.17;;;11.40;99.90;;;;;;5047651;28;20033;-67
2022/05/08 03:13:39;;;;;;;32.45;18.60;;;11.30;99.90;;;;;;5046788;28;20044;-67
2022/05/08 03:16:22;;;;;;;29.95;18.13;;;11.30;99.90;;;;;;5042093;28;20045;-68
2022/05/08 03:18:53;;;;;;;27.60;16.25;;;11.30;99.90;;;;;;5050539;28;20032;-67
2022/05/08 03:21:26;;;;;;;26.13;16.08;;;11.30;99.90;;;;;;5058796;28;20039;-68
2022/05/08 03:23:51;;;;;;;25.48;16.02;;;11.30;99.90;;;;;;5057657;28;20037;-67
2022/05/08 03:26:19;;;;;;;;;;;11.20;99.90;;;;;;5063012;28;20052;-68
2022/05/08 03:28:50;;;;;;;27.77;15.50;;;11.10;99.90;;;;;;5057288;28;19982;-67
2022/05/08 03:31:21;;;;;;;24.98;15.02;;;11.20;99.90;;;;;;5060950;28;20047;-67
2022/05/08 03:33:55;;;;;;;31.88;16.50;;;11.10;99.90;;;;;;5057239;28;20065;-67
2022/05/08 03:36:24;;;;;;;25.75;15.43;;;11.00;99.90;;;;;;5058243;28;20047;-67
2022/05/08 03:38:54;;;;;;;24.85;14.65;;;11.00;99.90;;;;;;5041889;28;20089;-68
2022/05/08 03:41:20;;;;;;;32.20;14.68;;;11.00;99.90;;;;;;5042086;28;20079;-67
2022/05/08 03:43:48;;;;;;;;;;;10.90;99.90;;;;;;5047364;28;20080;-67
2022/05/08 03:46:25;;;;;;;22.30;12.23;;;10.80;99.90;;;;;;5042263;28;19920;-67
2022/05/08 03:48:59;;;;;;;27.98;14.18;;;10.70;99.90;;;;;;5046663;28;20032;-67
2022/05/08 03:51:24;;;;;;;20.88;13.05;;;10.60;99.90;;;;;;5061707;28;20131;-67
2022/05/08 03:53:50;;;;;;;;;;;10.50;99.90;;;;;;5060804;28;20674;-67
2022/05/08 03:56:19;;;;;;;19.27;11.73;;;10.40;99.90;;;;;;5043227;28;20277;-67
2022/05/08 03:58:47;;;;;;;21.38;12.30;;;10.40;99.90;;;;;;5037507;28;20363;-67
2022/05/08 04:01:19;;;;;;;29.33;13.02;;;10.20;99.90;;;;;;5062299;28;20067;-67
2022/05/08 04:03:50;;;;;;;21.10;11.85;;;10.30;99.90;;;;;;5065713;28;20044;-67
2022/05/08 04:06:15;;;;;;;23.73;11.60;;;10.30;99.90;;;;;;5045330;28;20041;-67
2022/05/08 04:08:41;;;;;;;;;;;10.40;99.90;;;;;;5045624;28;20443;-67
2022/05/08 04:11:12;;;;;;;26.92;14.48;;;10.30;99.90;;;;;;5046444;28;19916;-67
2022/05/08 04:13:45;;;;;;;18.17;11.35;;;10.30;99.90;;;;;;5043882;28;20076;-67
2022/05/08 04:16:18;;;;;;;21.90;12.55;;;10.30;99.90;;;;;;5049122;28;20040;-67
2022/05/08 04:18:56;;;;;;;20.88;12.52;;;10.20;99.90;;;;;;5045125;28;20819;-67
2022/05/08 04:21:30;;;;;;;27.50;12.32;;;10.10;99.90;;;;;;5048063;28;20072;-67
2022/05/08 04:26:47;;;;;;;23.20;12.93;;;10.30;99.90;;;;;;5042354;28;20043;-67
2022/05/08 04:29:13;;;;;;;24.85;11.75;;;10.30;99.90;;;;;;5045427;28;20119;-67
2022/05/08 04:31:38;;;;;;;;;;;10.30;99.90;;;;;;5042747;28;20700;-67
2022/05/08 04:34:04;;;;;;;19.75;10.77;;;10.40;99.90;;;;;;5039544;28;19917;-67
2022/05/08 04:36:39;;;;;;;18.88;11.15;;;10.50;99.90;;;;;;5044370;28;20119;-68
2022/05/08 04:39:07;;;;;;;22.23;11.60;;;10.50;99.90;;;;;;5042271;28;20115;-68
2022/05/08 04:41:50;;;;;;;19.42;11.13;;;10.60;99.90;;;;;;5048384;28;20554;-68
2022/05/08 04:44:21;;;;;;;19.77;11.25;;;10.50;99.90;;;;;;5045070;28;20048;-67
2022/05/08 04:46:56;;;;;;;16.38;10.48;;;10.70;99.90;;;;;;5047092;28;20415;-68
2022/05/08 04:49:22;;;;;;;19.75;11.75;;;10.70;99.90;;;;;;5045008;28;20076;-67
2022/05/08 04:51:47;;;;;;;;;;;10.70;99.90;;;;;;5044020;28;20495;-68
2022/05/08 04:54:15;;;;;;;17.77;10.57;;;10.80;99.90;;;;;;5046152;28;19917;-68
2022/05/08 04:56:43;;;;;;;22.67;11.73;;;10.80;99.90;;;;;;5059151;28;20052;-68
2022/05/08 04:59:12;;;;;;;21.38;11.60;;;10.80;99.90;;;;;;5064311;28;20119;-67
2022/05/08 05:01:37;;;;;;;;;;;10.80;99.90;;;;;;5059134;28;20550;-68
2022/05/08 05:04:09;;;;;;;18.80;10.77;;;10.90;99.90;;;;;;5064289;28;19916;-68
2022/05/08 05:06:46;;;;;;;18.08;10.93;;;10.90;99.90;;;;;;5035301;28;20053;-68
2022/05/08 05:09:17;;;;;;;18.52;11.07;;;10.90;99.90;;;;;;5041098;28;20604;-67
2022/05/08 05:11:49;;;;;;;25.75;11.82;;;10.90;99.90;;;;;;5044854;28;20039;-68
2022/05/08 05:14:17;;;;;;;25.33;11.30;;;10.90;99.90;;;;;;5049907;28;20378;-67
2022/05/08 05:16:43;;;;;;;22.02;10.63;;;10.80;99.90;;;;;;5047508;28;20040;-67
2022/05/08 05:19:10;;;;;;;;;;;10.90;99.90;;;;;;5044554;28;20033;-67
2022/05/08 05:21:36;;;;;;;19.98;10.18;;;10.90;99.90;;;;;;5054985;28;19924;-68
2022/05/08 05:24:05;;;;;;;;;;;11.00;99.90;;;;;;5064300;28;20150;-67
2022/05/08 05:26:31;;;;;;;19.45;11.13;;;11.10;99.90;;;;;;5059978;28;19920;-68
2022/05/08 05:28:59;;;;;;;;;;;11.10;99.90;;;;;;5044712;28;20039;-67
2022/05/08 05:31:28;;;;;;;16.63;10.05;;;11.10;99.90;;;;;;5052978;28;20011;-66
2022/05/08 05:33:54;;;;;;;20.80;10.60;;;11.10;99.90;;;;;;5049296;28;20044;-70
2022/05/08 05:36:20;;;;;;;17.38;9.35;;;11.20;99.90;;;;;;5042300;28;20037;-69
2022/05/08 05:38:46;;;;;;;;;;;11.20;99.90;;;;;;5043419;28;20037;-68
2022/05/08 05:41:11;;;;;;;20.30;9.57;;;11.20;99.90;;;;;;5045678;28;20007;-66
2022/05/08 05:43:37;;;;;;;;;;;11.10;99.90;;;;;;5045755;28;20036;-66
2022/05/08 05:48:47;;;;;;;18.15;9.10;;;11.10;99.90;;;;;;5036747;28;20116;-66
2022/05/08 05:51:12;;;;;;;;;;;11.10;99.90;;;;;;5047860;28;20174;-68
2022/05/08 05:53:38;;;;;;;15.80;9.07;;;11.10;99.90;;;;;;5052133;28;19952;-66
2022/05/08 05:56:03;;;;;;;;;;;11.20;99.90;;;;;;5048541;28;20170;-67
2022/05/08 05:58:29;;;;;;;17.80;9.25;;;11.20;99.90;;;;;;5042815;28;19921;-71
2022/05/08 06:00:55;;;;;;;;;;;11.10;99.90;;;;;;5046872;28;20036;-67
2022/05/08 06:03:21;;;;;;;21.27;10.55;;;11.00;99.90;;;;;;5040286;28;19931;-65
2022/05/08 06:05:46;;;;;;;18.05;10.43;;;11.00;99.90;;;;;;5042568;28;20663;-67
2022/05/08 06:08:12;;;;;;;;;;;10.90;99.90;;;;;;5048405;28;20120;-69
2022/05/08 06:10:38;;;;;;;18.65;10.38;;;11.10;99.90;;;;;;5042706;28;20364;-68
2022/05/08 06:13:03;;;;;;;;;;;10.90;99.90;;;;;;5047511;28;20037;-71
2022/05/08 06:15:29;;;;;;;16.40;9.82;;;11.00;99.90;;;;;;5041747;28;19917;-71
2022/05/08 06:17:55;;;;;;;;;;;11.10;99.90;;;;;;5058478;28;20124;-69
2022/05/08 06:20:21;;;;;;;18.98;9.48;;;11.20;99.90;;;;;;5056017;28;20266;-70
2022/05/08 06:22:46;;;;;;;;;;;11.10;99.90;;;;;;5043107;28;20112;-68
2022/05/08 06:25:12;;;;;;;18.98;10.10;;;11.00;99.90;;;;;;5042543;28;19917;-71
2022/05/08 06:27:38;;;;;;;;;;;11.00;99.90;;;;;;5045022;28;20068;-71
2022/05/08 06:30:04;;;;;;;19.35;9.75;;;10.90;99.90;;;;;;5044122;28;19974;-69
2022/05/08 06:32:29;;;;;;;17.83;9.98;;;11.00;99.90;;;;;;5042744;28;20082;-70
2022/05/08 06:34:55;;;;;;;;;;;10.90;99.90;;;;;;5044196;28;20032;-70
2022/05/08 06:37:21;;;;;;;16.90;10.13;;;11.00;99.90;;;;;;5047740;28;19924;-72
2022/05/08 06:39:46;;;;;;;;;;;10.90;99.90;;;;;;5036583;28;20190;-70
2022/05/08 06:42:12;;;;;;;20.92;10.57;;;11.00;99.90;;;;;;5043459;28;19923;-70
2022/05/08 06:44:38;;;;;;;;;;;11.00;99.90;;;;;;5060654;28;20475;-71
2022/05/08 06:47:04;;;;;;;20.23;10.50;;;11.00;99.90;;;;;;5046708;28;19920;-72
2022/05/08 06:49:30;;;;;;;17.33;10.75;;;11.20;99.90;;;;;;5054105;28;20058;-70
2022/05/08 06:51:55;;;;;;;;;;;11.20;99.90;;;;;;5043952;28;20033;-71
2022/05/08 06:54:21;;;;;;;17.33;11.05;;;11.10;99.90;;;;;;5043852;28;19932;-70
2022/05/08 06:56:47;;;;;;;;;;;11.10;99.90;;;;;;5040961;28;20028;-71
2022/05/08 07:01:56;;;;;;;23.08;10.93;;;11.40;99.90;;;;;;5053650;28;20403;-72
2022/05/08 07:04:22;;;;;;;;;;;11.60;99.90;;;;;;5081008;28;20510;-70
2022/05/08 07:06:48;;;;;;;17.63;10.15;;;11.70;99.90;;;;;;5082195;28;19924;-71
2022/05/08 07:09:13;;;;;;;;;;;11.70;99.90;;;;;;5077011;28;20055;-70
2022/05/08 07:11:41;;;;;;;13.90;8.77;;;11.60;99.90;;;;;;5063661;28;20516;-70
2022/05/08 07:14:07;;;;;;;18.52;9.02;;;11.60;99.90;;;;;;5063576;28;20105;-70
2022/05/08 07:16:32;;;;;;;;;;;11.50;99.90;;;;;;5063540;28;20045;-70
2022/05/08 07:18:58;;;;;;;12.25;7.65;;;11.60;99.90;;;;;;5063963;28;19920;-69
2022/05/08 07:21:23;;;;;;;;;;;11.50;99.90;;;;;;5063701;28;20142;-70
2022/05/08 07:23:49;;;;;;;16.42;7.53;;;11.50;99.90;;;;;;5063426;28;19920;-70
2022/05/08 07:26:15;;;;;;;;;;;11.60;99.90;;;;;;5063880;28;20056;-71
2022/05/08 07:28:41;;;;;;;14.48;6.38;;;11.60;99.90;;;;;;5065569;28;19924;-69
2022/05/08 07:31:07;;;;;;;14.40;5.78;;;11.70;99.90;;;;;;5066430;28;20032;-70
2022/05/08 07:33:36;;;;;;;;;;;11.80;99.90;;;;;;5068419;28;20037;-72
2022/05/08 07:36:14;;;;;;;9.43;4.93;;;12.00;99.90;;;;;;5067763;28;19917;-71
2022/05/08 07:38:42;;;;;;;13.48;5.53;;;12.10;99.90;;;;;;5066993;28;20559;-70
2022/05/08 07:41:13;;;;;;;11.45;5.82;;;12.10;99.90;;;;;;5067177;28;20102;-70
2022/05/08 07:43:45;;;;;;;7.95;4.55;;;12.20;99.90;;;;;;5067018;28;20037;-70
2022/05/08 07:46:25;;;;;;;11.57;4.97;;;12.30;99.90;;;;;;5066127;28;20040;-70
2022/05/08 07:48:58;;;;;;;12.60;5.30;;;12.50;99.90;;;;;;5064771;28;20040;-72
2022/05/08 07:51:33;;;;;;;8.10;4.65;;;12.60;99.90;;;;;;5087127;28;20093;-70
2022/05/08 07:54:17;;;;;;;13.43;4.30;;;12.80;99.90;;;;;;5086652;28;20119;-70
2022/05/08 07:56:46;;;;;;;7.63;4.40;;;12.80;99.90;;;;;;5087614;28;20040;-71
2022/05/08 07:59:12;;;;;;;;;;;12.70;99.90;;;;;;5086852;28;20040;-72
2022/05/08 08:01:38;;;;;;;10.35;4.10;;;13.00;99.90;;;;;;5085407;28;19915;-70
2022/05/08 08:04:10;;;;;;;7.35;3.80;;;13.30;99.90;;;;;;5078289;28;20032;-71
2022/05/08 08:06:38;;;;;;;9.05;3.83;;;13.90;99.90;;;;;;5063630;28;20124;-70
2022/05/08 08:09:10;;;;;;;7.60;4.30;;;14.40;99.90;;;;;;5062619;28;20044;-72
2022/05/08 08:11:41;;;;;;;9.57;3.80;;;14.30;99.90;;;;;;5074935;28;20119;-70
2022/05/08 08:14:12;;;;;;;13.13;4.70;;;14.30;99.90;;;;;;5067309;28;20146;-70
2022/05/08 08:16:39;;;;;;;8.82;4.00;;;15.00;99.90;;;;;;5067357;28;20599;-72
2022/05/08 08:19:09;;;;;;;9.38;4.10;;;15.70;99.30;;;;;;5066940;28;20048;-70
2022/05/08 08:21:52;;;;;;;9.15;3.50;;;15.60;98.60;;;;;;5066862;28;20040;-71
2022/05/08 08:24:18;;;;;;;9.45;4.18;;;15.40;98.80;;;;;;5067362;28;20047;-70
2022/05/08 08:26:43;;;;;;;;;;;15.90;99.10;;;;;;5067356;28;20603;-69
2022/05/08 08:29:22;;;;;;;8.35;4.07;;;16.10;98.30;;;;;;5066243;28;19917;-71
2022/05/08 08:31:49;;;;;;;8.30;4.17;;;16.20;98.40;;;;;;5073519;28;20461;-70
2022/05/08 08:34:20;;;;;;;8.05;3.60;;;15.50;99.50;;;;;;5071593;28;20033;-70
2022/05/08 08:36:53;;;;;;;8.60;3.78;;;15.40;97.60;;;;;;5069309;28;20048;-70
2022/05/08 08:39:23;;;;;;;8.55;4.15;;;15.30;98.30;;;;;;5066370;28;20041;-70
2022/05/08 08:42:04;;;;;;;9.15;3.92;;;15.20;99.50;;;;;;5070260;28;20062;-71
2022/05/08 08:47:43;;;;;;;8.82;3.72;;;14.80;99.40;;;;;;5066009;28;20037;-70
2022/05/08 08:50:19;;;;;;;10.32;3.90;;;14.80;99.90;;;;;;5066060;28;20040;-70
2022/05/08 08:52:50;;;;;;;8.80;3.28;;;15.30;99.80;;;;;;5066053;28;20076;-70
2022/05/08 08:55:19;;;;;;;7.78;2.75;;;15.80;99.10;;;;;;5064952;28;20455;-71
2022/05/08 08:57:48;;;;;;;7.95;2.50;;;15.90;98.00;;;;;;5065068;28;20409;-70
2022/05/08 09:00:21;;;;;;;9.18;2.88;;;15.80;95.30;;;;;;5055496;28;20044;-69
2022/05/08 09:02:54;;;;;;;4.65;2.20;;;15.70;97.50;;;;;;5064268;28;20482;-70
2022/05/08 09:05:27;;;;;;;8.05;2.58;;;15.40;95.30;;;;;;5063711;28;20041;-72
2022/05/08 09:07:58;;;;;;;6.57;2.40;;;15.00;94.80;;;;;;5065238;28;20041;-72
2022/05/08 09:10:35;;;;;;;5.85;2.00;;;14.80;96.00;;;;;;5062839;28;20243;-71
2022/05/08 09:13:02;;;;;;;5.85;2.45;;;14.80;95.20;;;;;;5065164;28;20681;-70
2022/05/08 09:15:31;;;;;;;9.50;2.90;;;14.60;96.70;;;;;;5064722;28;20068;-68
2022/05/08 09:18:11;;;;;;;8.85;3.90;;;14.40;96.20;;;;;;5063641;28;20041;-70
2022/05/08 09:20:39;;;;;;;6.28;2.47;;;14.10;96.40;;;;;;5064718;28;20148;-70
2022/05/08 09:23:12;;;;;;;7.82;3.15;;;14.10;96.90;;;;;;5064737;28;20040;-71
2022/05/08 09:25:52;;;;;;;9.85;3.83;;;14.10;98.00;;;;;;5064695;28;20040;-70
2022/05/08 09:28:21;;;;;;;7.35;3.22;;;14.10;98.40;;;;;;5064606;28;20504;-70
2022/05/08 09:30:54;;;;;;;7.65;2.88;;;14.10;97.70;;;;;;5063007;28;20040;-70
2022/05/08 09:33:33;;;;;;;7.05;2.80;;;14.20;98.60;;;;;;5064492;28;20040;-68
2022/05/08 09:36:03;;;;;;;9.80;2.80;;;14.30;97.50;;;;;;5064433;28;20045;-70
2022/05/08 09:38:54;;;;;;;11.05;3.65;;;14.50;97.00;;;;;;5063403;28;20626;-70
2022/05/08 09:41:24;;;;;;;8.85;3.30;;;14.20;96.40;;;;;;5062251;28;20036;-70
2022/05/08 09:43:51;;;;;;;14.10;3.92;;;13.80;98.60;;;;;;5064010;28;20037;-69
2022/05/08 09:46:19;;;;;;;9.32;3.15;;;14.00;99.10;;;;;;5062454;28;20585;-70
2022/05/08 09:48:46;;;;;;;9.35;2.95;;;14.20;98.20;;;;;;5072823;28;20112;-69
2022/05/08 09:51:15;;;;;;;7.70;3.17;;;14.30;99.30;;;;;;5072428;28;20039;-70
2022/05/08 09:53:42;;;;;;;7.60;3.25;;;14.40;98.10;;;;;;5063828;28;20089;-69
2022/05/08 09:56:09;;;;;;;11.35;4.63;;;14.40;97.90;;;;;;5061835;28;20109;-70
2022/05/08 09:58:35;;;;;;;8.32;3.45;;;14.50;96.40;;;;;;5055505;28;20123;-69
2022/05/08 10:01:01;;;;;;;6.28;2.72;;;14.50;97.10;;;;;;5065534;28;20037;-69
2022/05/08 10:03:29;;;;;;;6.50;2.88;;;14.30;97.50;;;;;;5063964;28;20106;-70
2022/05/08 10:05:55;;;;;;;10.60;3.30;;;14.30;98.60;;;;;;5064899;28;20119;-70
2022/05/08 10:08:37;;;;;;;8.68;3.00;;;14.30;97.60;;;;;;5065223;28;20047;-68
2022/05/08 10:14:05;;;;;;;7.68;2.88;;;14.50;98.40;;;;;;5072099;28;20029;-70
2022/05/08 10:16:48;;;;;;;8.05;2.45;;;14.60;96.80;;;;;;5064444;28;20095;-70
2022/05/08 10:19:22;;;;;;;8.75;2.75;;;14.60;96.70;;;;;;5063656;28;20079;-70
2022/05/08 10:21:57;;;;;;;6.00;2.13;;;14.80;96.80;;;;;;5057538;28;20040;-70
2022/05/08 10:24:30;;;;;;;8.00;2.58;;;14.70;97.50;;;;;;5059433;28;20040;-70
2022/05/08 10:27:25;;;;;;;8.70;2.20;;;14.90;96.00;;;;;;5063507;28;20540;-69
2022/05/08 10:29:51;;;;;;;5.35;2.17;;;14.90;96.20;;;;;;5055658;28;20055;-70
2022/05/08 10:32:31;;;;;;;;;;;14.90;95.10;;;;;;5057785;28;20036;-70
2022/05/08 10:35:03;;;;;;;7.85;1.80;;;15.20;97.30;;;;;;5062795;28;19938;-70
2022/05/08 10:37:30;;;;;;;6.88;1.63;;;15.40;93.50;;;;;;5062963;28;20530;-68
2022/05/08 10:39:56;;;;;;;10.73;2.63;;;15.70;96.10;;;;;;5061973;28;21097;-69
2022/05/08 10:42:28;;;;;;;9.40;2.03;;;15.40;94.10;;;;;;5063316;28;20671;-71
2022/05/08 10:44:55;;;;;;;8.70;1.90;;;15.40;94.90;;;;;;5062469;28;20306;-70
2022/05/08 10:47:33;;;;;;;11.82;2.38;;;15.60;93.50;;;;;;5064988;28;20124;-69
2022/05/08 10:50:15;;;;;;;10.70;2.00;;;15.70;94.30;;;;;;5060760;28;20032;-71
2022/05/08 10:52:45;;;;;;;7.07;2.22;;;15.60;94.00;;;;;;5061484;28;20071;-71
2022/05/08 10:55:15;;;;;;;8.55;2.65;;;15.70;95.40;;;;;;5063687;28;20064;-71
2022/05/08 10:57:42;;;;;;;7.93;2.20;;;15.60;95.70;;;;;;5065738;28;20039;-70
2022/05/08 11:00:16;;;;;;;11.10;2.45;;;15.50;94.70;;;;;;5062976;28;20040;-71
2022/05/08 11:02:50;;;;;;;7.55;2.13;;;15.50;95.70;;;;;;5065981;28;20094;-71
2022/05/08 11:05:19;;;;;;;5.55;2.13;;;15.90;97.40;;;;;;5061452;28;20090;-70
2022/05/08 11:07:56;;;;;;;11.20;2.83;;;16.20;95.40;;;;;;5062190;28;20028;-71
2022/05/08 11:10:27;;;;;;;7.40;2.13;;;16.20;95.90;;;;;;5060755;28;20044;-72
2022/05/08 11:13:10;;;;;;;7.28;2.00;;;16.10;95.60;;;;;;5063276;28;20035;-71
2022/05/08 11:15:38;;;;;;;7.10;1.98;;;16.10;94.30;;;;;;5062896;28;20033;-71
2022/05/08 11:18:17;;;;;;;11.95;2.72;;;16.30;93.20;;;;;;5060679;28;20033;-71
2022/05/08 11:20:53;;;;;;;5.75;2.20;;;16.20;95.30;;;;;;5061914;28;20047;-71
2022/05/08 11:23:25;;;;;;;9.32;2.50;;;16.00;96.20;;;;;;5063124;28;20040;-70
2022/05/08 11:25:52;;;;;;;17.13;3.60;;;16.10;97.40;;;;;;5059883;28;20040;-68
2022/05/08 11:28:22;;;;;;;8.30;2.97;;;16.40;95.00;;;;;;5060589;28;20177;-70
2022/05/08 11:30:50;;;;;;;9.93;2.72;;;16.60;94.90;;;;;;5059288;28;20117;-70
2022/05/08 11:36:04;;;;;;;13.13;1.98;;;16.10;94.70;;;;;;5060874;28;20816;-70
2022/05/08 11:38:56;;;;;;;5.45;2.05;;;16.20;93.60;;;;;;5063302;28;20033;-69
2022/05/08 11:41:28;;;;;;;6.63;1.80;;;16.30;93.60;;;;;;5059589;28;20725;-68
2022/05/08 11:43:55;;;;;;;3.65;1.58;;;16.50;92.40;;;;;;5062291;28;20036;-67
2022/05/08 11:46:38;;;;;;;7.90;1.98;;;16.60;93.00;;;;;;5060322;28;20617;-67
2022/05/08 11:49:29;;;;;;;9.07;2.70;;;16.30;95.70;;;;;;5063237;28;20058;-67
2022/05/08 11:52:04;;;;;;;5.63;2.58;;;16.20;92.90;;;;;;5060440;28;20550;-67
2022/05/08 11:54:35;;;;;;;7.68;2.08;;;16.10;92.80;;;;;;5060956;28;20660;-67
2022/05/08 11:57:21;;;;;;;10.50;2.80;;;16.10;94.30;;;;;;5062866;28;21432;-67
2022/05/08 11:59:49;;;;;;;10.25;2.30;;;16.40;92.50;;;;;;5066949;28;20036;-67
2022/05/08 12:02:16;;;;;;;4.47;1.85;;;16.60;91.80;;;;;;5063510;28;21019;-66
2022/05/08 12:04:52;;;;;;;8.25;2.60;;;16.40;91.40;;;;;;5063611;28;20060;-67
2022/05/08 12:07:23;;;;;;;8.45;2.08;;;16.30;91.80;;;;;;5062000;28;20045;-67
2022/05/08 12:09:55;;;;;;;6.90;1.60;;;16.30;91.50;;;;;;5061603;28;20033;-67
2022/05/08 12:12:33;;;;;;;6.65;2.08;;;16.50;91.40;;;;;;5060957;28;20044;-67
2022/05/08 12:15:21;;;;;;;6.63;1.77;;;16.40;89.70;;;;;;5066017;28;20720;-67
2022/05/08 12:17:50;;;;;;;4.45;1.40;;;16.10;91.40;;;;;;5066601;28;20052;-66
2022/05/08 12:20:25;;;;;;;6.90;1.27;;;16.20;90.10;;;;;;5064115;28;20037;-67
2022/05/08 12:23:04;;;;;;;5.45;1.55;;;16.60;91.60;;;;;;5067564;28;20036;-67
2022/05/08 12:25:31;;;;;;;6.50;1.63;;;16.50;90.00;;;;;;5068773;28;20089;-66
2022/05/08 12:27:57;;;;;;;5.47;1.88;;;16.50;90.20;;;;;;5065787;28;20644;-66
2022/05/08 12:30:23;;;;;;;4.97;1.58;;;16.20;89.70;;;;;;5063106;28;20048;-66
2022/05/08 12:32:48;;;;;;;;;;;16.30;90.30;;;;;;5082637;28;20044;-67
2022/05/08 12:35:15;;;;;;;4.78;1.45;;;16.40;90.60;;;;;;5064936;28;19916;-67
2022/05/08 12:37:40;;;;;;;4.85;1.95;;;16.40;87.30;;;;;;5066690;28;20184;-67
2022/05/08 12:40:07;;;;;;;;;;;16.20;84.70;;;;;;5065333;28;20519;-66
2022/05/08 12:42:33;;;;;;;5.15;1.55;;;16.00;82.30;;;;;;5095957;28;19916;-66
2022/05/08 12:44:59;;;;;;;;;;;16.20;84.80;;;;;;5064609;28;20440;-66
2022/05/08 12:47:30;;;;;;;9.65;1.95;;;16.20;90.90;;;;;;5063892;28;19928;-67
2022/05/08 12:49:56;;;;;;;5.72;1.30;;;16.30;82.70;;;;;;5064855;28;21434;-67
2022/05/08 12:52:35;;;;;;;8.15;1.95;;;16.30;82.60;;;;;;5060758;28;20036;-67
2022/05/08 12:55:02;;;;;;;9.98;1.63;;;16.40;87.40;;;;;;5063533;28;20744;-66
2022/05/08 13:00:18;;;;;;;5.38;1.38;;;16.60;83.10;;;;;;5046819;28;20036;-66
2022/05/08 13:02:51;;;;;;;7.15;1.48;;;16.10;82.00;;;;;;5077683;28;20029;-67
2022/05/08 13:05:27;;;;;;;3.42;1.45;;;16.00;84.50;;;;;;5061232;28;20036;-67
2022/05/08 13:07:53;;;;;;;6.95;1.63;;;15.90;87.40;;;;;;5063824;28;20068;-66
2022/05/08 13:10:19;;;;;;;3.30;1.42;;;16.00;86.90;;;;;;5061989;28;20486;-67
2022/05/08 13:12:44;;;;;;;;;;;16.30;87.20;;;;;;5064087;28;20036;-67
2022/05/08 13:15:13;;;;;;;6.82;1.58;;;16.40;86.10;;;;;;5066259;28;19975;-67
2022/05/08 13:17:39;;;;;;;4.68;1.98;;;16.40;88.60;;;;;;5062964;28;20536;-67
2022/05/08 13:20:10;;;;;;;;;;;16.40;85.00;;;;;;5061296;28;20127;-66
2022/05/08 13:22:41;;;;;;;4.15;1.60;;;16.40;86.10;;;;;;5062795;28;19916;-67
2022/05/08 13:25:08;;;;;;;5.72;1.77;;;16.50;87.70;;;;;;5063677;28;20093;-67
2022/05/08 13:27:47;;;;;;;6.80;2.08;;;16.60;83.60;;;;;;5064365;28;20068;-66
2022/05/08 13:30:20;;;;;;;6.28;1.88;;;16.50;87.70;;;;;;5052764;28;20032;-67
2022/05/08 13:32:46;;;;;;;6.38;2.08;;;16.40;90.10;;;;;;5089662;28;20044;-67
2022/05/08 13:35:11;;;;;;;;;;;16.40;88.70;;;;;;5078154;28;20447;-67